Hereford, TX

6:46 AM CST on January 24, 2018 (GMT -0600)
Hereford Municipal

Weather History for KHRX - April, 2014

Change the Weather History Date:

Tuesday, April 1, 2014

  Actual Average (KCVN) Record (KCVN)
Temperature  
Mean Temperature 56 °F -  
Max Temperature 80 °F 66 °F 87 °F (1932)
Min Temperature 33 °F 36 °F 15 °F (1936)
Degree Days  
Heating Degree Days 8    
Growing Degree Days 6 (Base 50)    
Moisture  
Dew Point 18 °F    
Average Humidity 28    
Maximum Humidity 56    
Minimum Humidity 8    
Precipitation  
Precipitation 0.00 in - - ()
Sea Level Pressure  
Sea Level Pressure 29.91 in    
Wind  
Wind Speed 8 mph (SE)    
Max Wind Speed 22 mph    
Max Gust Speed 30 mph    
Visibility 10 miles    
Events      
Averages and records for this station are not official NWS values.
T = Trace of Precipitation, MM = Missing Value Source: NWS Daily Summary

Daily Weather History Graph

Daily Weather History Graph

Search for Another Location

Airport or City:

Trip Planner

Search our weather history database for the weather conditions in past years. The results will help you decide how hot, cold, wet, or windy it might be!

Date:

Astronomy

Apr. 01, 2014 Rise Set
Actual Time 7:36 AM CDT 8:10 PM CDT
Civil Twilight 7:10 AM CDT 8:36 PM CDT
Nautical Twilight 6:40 AM CDT 9:06 PM CDT
Astronomical Twilight 6:10 AM CDT 9:36 PM CDT
Moon 8:45 AM CDT (4/1) 10:29 PM CDT (4/1)
Length of Visible Light 13h 25m
Length of Day
12h 34m
Waxing Crescent, 5% of the Moon is Illuminated
Apr 1
Waxing Crescent
Apr 7
First Quarter
Apr 15
Full
Apr 22
Last Quarter
Apr 29
New

Hourly Weather History & Observations

Time (CDT) Temp. Windchill Dew Point Humidity Pressure Visibility Wind Dir Wind Speed Gust Speed Precip Events Conditions
12:15 AM 48.7 °F - 10.0 °F 21% 29.95 in 10.0 mi Calm Calm - N/A   Clear
12:35 AM 45.5 °F 43.2 °F 9.9 °F 24% 29.95 in 10.0 mi South 4.6 mph - N/A   Clear
12:55 AM 47.8 °F - 6.6 °F 19% 29.95 in 10.0 mi Calm Calm - N/A   Clear
1:15 AM 47.5 °F - 6.3 °F 19% 29.95 in 10.0 mi South 3.5 mph - N/A   Clear
1:35 AM 38.3 °F 30.1 °F 9.9 °F 31% 29.99 in 10.0 mi NNE 13.8 mph - N/A   Clear
1:55 AM 46.4 °F 41.1 °F 6.1 °F 19% 29.98 in 10.0 mi NE 11.5 mph - N/A   Clear
2:15 AM 46.8 °F - 8.4 °F 21% 29.98 in 10.0 mi NE 15.0 mph - N/A   Clear
2:35 AM 46.2 °F 39.8 °F 12.9 °F 26% 29.99 in 10.0 mi ENE 15.0 mph - N/A   Clear
2:55 AM 46.0 °F 39.9 °F 15.6 °F 30% 29.99 in 10.0 mi ENE 13.8 mph - N/A   Clear
3:15 AM 45.1 °F 38.8 °F 17.8 °F 34% 29.99 in 10.0 mi ENE 13.8 mph - N/A   Clear
3:35 AM 44.6 °F 38.4 °F 19.4 °F 37% 29.99 in 10.0 mi NE 12.7 mph - N/A   Clear
3:55 AM 43.7 °F 37.7 °F 20.1 °F 39% 30.00 in 10.0 mi NE 11.5 mph - N/A   Clear
4:15 AM 42.1 °F 36.6 °F 20.1 °F 42% 30.00 in 10.0 mi NNE 9.2 mph - N/A   Clear
4:35 AM 40.6 °F 34.8 °F 20.1 °F 44% 30.00 in 10.0 mi NNE 9.2 mph - N/A   Clear
4:55 AM 40.5 °F 34.1 °F 20.3 °F 45% 29.99 in 10.0 mi NE 10.4 mph - N/A   Clear
5:15 AM 39.6 °F 34.7 °F 20.1 °F 46% 29.99 in 10.0 mi NE 6.9 mph 10.4 mph N/A   Clear
5:35 AM 37.6 °F 31.6 °F 19.4 °F 48% 29.99 in 10.0 mi NNE 8.1 mph - N/A   Clear
5:55 AM 37.2 °F 31.9 °F 19.9 °F 50% 29.99 in 10.0 mi NE 6.9 mph - N/A   Clear
6:15 AM 36.5 °F 29.7 °F 19.8 °F 51% 29.99 in 10.0 mi NE 9.2 mph - N/A   Clear
6:35 AM 34.5 °F 27.9 °F 19.4 °F 54% 30.00 in 10.0 mi North 8.1 mph - N/A   Clear
6:55 AM 35.2 °F 28.1 °F 19.4 °F 53% 30.02 in 7.0 mi North 9.2 mph - N/A   Clear
7:15 AM 35.6 °F 28.0 °F 20.3 °F 54% 30.02 in 10.0 mi NNE 10.4 mph - N/A   Clear
7:35 AM 33.8 °F 27.7 °F 19.0 °F 55% 30.03 in 7.0 mi NNE 6.9 mph - N/A   Clear
7:55 AM 33.6 °F 27.5 °F 19.4 °F 56% 30.02 in 10.0 mi NE 6.9 mph - N/A   Clear
8:15 AM 34.7 °F 28.1 °F 20.1 °F 55% 30.03 in 10.0 mi NNE 8.1 mph - N/A   Clear
8:35 AM 36.7 °F 28.9 °F 20.3 °F 52% 30.03 in 10.0 mi NNE 11.5 mph - N/A   Clear
8:55 AM 38.7 °F 30.9 °F 21.2 °F 50% 30.03 in 10.0 mi NNE 12.7 mph - N/A   Clear
9:15 AM 40.5 °F 33.2 °F 21.6 °F 47% 30.02 in 10.0 mi NE 12.7 mph - N/A   Clear
9:35 AM 41.4 °F - 21.4 °F 45% 30.02 in 10.0 mi North - - N/A   Clear
9:55 AM 43.3 °F - 22.1 °F 43% 30.02 in 10.0 mi North - - N/A   Clear
10:15 AM 44.8 °F - 22.6 °F 42% 30.01 in 10.0 mi North - - N/A   Clear
10:35 AM 45.5 °F 41.8 °F 23.0 °F 41% 30.01 in 10.0 mi ENE 6.9 mph - N/A   Clear
10:55 AM 46.4 °F 43.5 °F 23.0 °F 40% 30.00 in 10.0 mi NE 5.8 mph - N/A   Clear
11:15 AM 48.2 °F - 23.2 °F 37% 30.00 in 10.0 mi Calm Calm - N/A   Clear
11:35 AM 48.7 °F - 23.2 °F 37% 30.00 in 10.0 mi Calm Calm - N/A   Clear
11:55 AM 49.8 °F - 23.0 °F 35% 29.99 in 10.0 mi Calm Calm - N/A   Clear
12:15 PM 52.3 °F - 23.0 °F 32% 29.99 in 10.0 mi Calm Calm - N/A   Clear
12:35 PM 53.4 °F - 23.0 °F 31% 29.98 in 10.0 mi Calm Calm - N/A   Clear
12:55 PM 55.6 °F - 23.0 °F 28% 29.96 in 10.0 mi East 3.5 mph - N/A   Clear
1:15 PM 56.7 °F - 23.4 °F 28% 29.95 in 10.0 mi Calm Calm - N/A   Clear
1:35 PM 59.0 °F - 23.0 °F 25% 29.94 in 10.0 mi South 5.8 mph - N/A   Clear
1:55 PM 62.2 °F - 22.8 °F 22% 29.93 in 10.0 mi Calm Calm - N/A   Clear
2:15 PM 63.9 °F - 22.8 °F 21% 29.91 in 10.0 mi SW 3.5 mph - N/A   Clear
2:35 PM 67.1 °F - 22.5 °F 18% 29.89 in 10.0 mi SSW 6.9 mph 16.1 mph N/A   Clear
2:55 PM 68.9 °F - 22.1 °F 17% 29.88 in 10.0 mi SW 10.4 mph 19.6 mph N/A   Clear
3:15 PM 70.3 °F - 22.5 °F 16% 29.86 in 10.0 mi South 11.5 mph 20.7 mph N/A   Clear
3:35 PM 72.0 °F - 21.7 °F 15% 29.84 in 10.0 mi SSW 11.5 mph 23.0 mph N/A   Clear
3:55 PM 72.7 °F - 21.7 °F 15% 29.83 in 10.0 mi South 6.9 mph 20.7 mph N/A   Clear
4:15 PM 74.5 °F - 22.1 °F 14% 29.81 in 10.0 mi South 12.7 mph 20.7 mph N/A   Clear
4:35 PM 75.9 °F - 21.0 °F 13% 29.80 in 10.0 mi SSW 16.1 mph 29.9 mph N/A   Clear
4:55 PM 75.4 °F - 21.6 °F 13% 29.80 in 10.0 mi South 9.2 mph 19.6 mph N/A   Clear
5:15 PM 76.1 °F - 22.1 °F 13% 29.78 in 10.0 mi South 11.5 mph 16.1 mph N/A   Clear
5:35 PM 78.1 °F - 21.4 °F 12% 29.76 in 10.0 mi SSE 18.4 mph 26.5 mph N/A   Clear
5:55 PM 79.2 °F - 19.2 °F 11% 29.75 in 10.0 mi South 20.7 mph 27.6 mph N/A   Clear
6:15 PM 79.2 °F - 19.4 °F 11% 29.76 in 10.0 mi South 11.5 mph - N/A   Clear
6:35 PM 79.0 °F - 19.2 °F 11% 29.75 in 10.0 mi South 16.1 mph - N/A   Clear
6:55 PM 80.1 °F - 11.8 °F 8% 29.75 in 10.0 mi SSW 20.7 mph 25.3 mph N/A   Clear
7:15 PM 79.2 °F - 11.7 °F 8% 29.75 in 10.0 mi SSW 21.9 mph - N/A   Clear
7:35 PM 77.4 °F - 14.4 °F 9% 29.75 in 10.0 mi SSW 21.9 mph 28.8 mph N/A   Clear
7:55 PM 74.5 °F - 13.6 °F 10% 29.75 in 10.0 mi South 12.7 mph 20.7 mph N/A   Clear
8:15 PM 72.9 °F - 13.8 °F 10% 29.76 in 10.0 mi South 17.3 mph 25.3 mph N/A   Clear
8:35 PM 71.4 °F - 14.4 °F 11% 29.77 in 10.0 mi South 17.3 mph 24.2 mph N/A   Clear
8:55 PM 69.6 °F - 14.5 °F 12% 29.77 in 10.0 mi South 16.1 mph - N/A   Clear
9:15 PM 66.7 °F - 14.5 °F 13% 29.78 in 10.0 mi South 16.1 mph 19.6 mph N/A   Clear
9:35 PM 65.5 °F - 14.5 °F 14% 29.79 in 10.0 mi South 15.0 mph 20.7 mph N/A   Clear
9:55 PM 63.3 °F - 14.4 °F 15% 29.79 in 10.0 mi South 10.4 mph 18.4 mph N/A   Clear
10:15 PM 64.0 °F - 13.8 °F 14% 29.79 in 10.0 mi South 13.8 mph - N/A   Clear
10:35 PM 62.6 °F - 13.6 °F 15% 29.79 in 10.0 mi South 11.5 mph - N/A   Clear
10:55 PM 60.3 °F - 12.7 °F 16% 29.79 in 10.0 mi South 9.2 mph - N/A   Clear
11:15 PM 61.5 °F - 12.7 °F 15% 29.79 in 10.0 mi SSW 11.5 mph - N/A   Clear
11:35 PM 60.4 °F - 12.7 °F 15% 29.79 in 10.0 mi SSW 10.4 mph - N/A   Clear
11:55 PM 59.2 °F - 13.6 °F 17% 29.79 in 10.0 mi SSW 9.2 mph - N/A   Clear